Pagrindinis puslapis
METAR-TAF:

METAR-TAF

Oro uostai :

Gerbangkertosusila, Indonezija

platuma: 07-22-47S, ilguma: 112-47-13E, Aukštis: 3 m

METAR: trūkstamas

Laikas: 11:31 (04:31 UTC)

Prognozė

Ataskaita buvo paskelbta 5 valandos ir 31 minutes, ne 23:00 UTC
Prognozė galioja nuo 29 metu 00 UTC su 01 metu 00 UTC
Vėjas 10 kt iš Vakarų/Šiaurės Vakarų
Matomumas: 9000 m
Išsisklaidę debesys ne aukštis 2000 ft
Laikinai
nuo 29 metu 07 UTC su 29 metu 12 UTC
Matomumas: 3000 m
Išsisklaidę debesys ne aukštis 1800 ft, Liūtiniai kamuoliniai debesys.
perkūnija, lietus
Tapsmas
nuo 29 metu 12 UTC su 29 metu 14 UTC
Vėjas 5 kt iš Vakarų
Matomumas: 5000 m
Mažai debesys ne aukštis 2000 ft
migla

TAF: WARR 282300Z 2900/0100 29010KT 9000 SCT020 TEMPO 2907/2912 3000 TSRA SCT018CB BECMG 2912/2914 26005KT 5000 HZ FEW020

Orai ataskaitas ir orų prognozės (METAR, TAF).

turimą stotys yra geltonos ir raudonos taškus žemėlapyje.

Perkelti pele per norėdami pamatyti stoties vardą.

Tada spustelėkite, norėdami matyti oro stebėjimo ir prognozės.

Norėdami pakeisti žemėlapį: spustelėkite ant žalios mygtukų su juodo kryžiaus žemyn,; žalią mygtuką su brūkšneliu, jei norite nutolinti; arba žalių rodyklių gretimoms žemėlapius.


METAR-TAF: